sensor_id;sensor_type;location;lat;lon;timestamp;P1;durP1;ratioP1;P2;durP2;ratioP2
26594;SDS011;14238;49.496;8.154;2023-03-03T00:02:06;7.80;;;7.00;;
26594;SDS011;14238;49.496;8.154;2023-03-03T00:04:32;7.70;;;6.90;;
26594;SDS011;14238;49.496;8.154;2023-03-03T00:06:57;7.70;;;7.00;;
26594;SDS011;14238;49.496;8.154;2023-03-03T00:09:23;7.40;;;6.70;;
26594;SDS011;14238;49.496;8.154;2023-03-03T00:11:49;7.43;;;6.77;;
26594;SDS011;14238;49.496;8.154;2023-03-03T00:14:29;8.43;;;7.63;;
26594;SDS011;14238;49.496;8.154;2023-03-03T00:16:56;7.93;;;7.13;;
26594;SDS011;14238;49.496;8.154;2023-03-03T00:19:24;9.93;;;7.50;;
26594;SDS011;14238;49.496;8.154;2023-03-03T00:21:50;7.40;;;6.70;;
26594;SDS011;14238;49.496;8.154;2023-03-03T00:26:47;9.40;;;8.30;;
26594;SDS011;14238;49.496;8.154;2023-03-03T00:31:53;9.80;;;8.60;;
26594;SDS011;14238;49.496;8.154;2023-03-03T00:36:50;8.53;;;7.73;;
26594;SDS011;14238;49.496;8.154;2023-03-03T00:39:28;7.50;;;6.80;;
26594;SDS011;14238;49.496;8.154;2023-03-03T00:42:00;7.03;;;6.37;;
26594;SDS011;14238;49.496;8.154;2023-03-03T00:49:49;9.03;;;8.17;;
26594;SDS011;14238;49.496;8.154;2023-03-03T00:52:16;9.10;;;8.20;;
26594;SDS011;14238;49.496;8.154;2023-03-03T00:54:42;9.27;;;8.37;;
26594;SDS011;14238;49.496;8.154;2023-03-03T00:57:08;9.90;;;8.80;;
26594;SDS011;14238;49.496;8.154;2023-03-03T00:59:36;12.27;;;8.70;;
26594;SDS011;14238;49.496;8.154;2023-03-03T01:02:02;11.47;;;9.37;;
26594;SDS011;14238;49.496;8.154;2023-03-03T01:04:28;10.10;;;8.60;;
26594;SDS011;14238;49.496;8.154;2023-03-03T01:06:53;9.80;;;7.97;;
26594;SDS011;14238;49.496;8.154;2023-03-03T01:09:19;9.33;;;8.33;;
26594;SDS011;14238;49.496;8.154;2023-03-03T01:11:44;9.20;;;8.30;;
26594;SDS011;14238;49.496;8.154;2023-03-03T01:14:10;11.67;;;9.70;;
26594;SDS011;14238;49.496;8.154;2023-03-03T01:16:36;9.60;;;8.70;;
26594;SDS011;14238;49.496;8.154;2023-03-03T01:19:02;10.07;;;8.70;;
26594;SDS011;14238;49.496;8.154;2023-03-03T01:21:27;10.30;;;9.00;;
26594;SDS011;14238;49.496;8.154;2023-03-03T01:23:53;9.80;;;8.53;;
26594;SDS011;14238;49.496;8.154;2023-03-03T01:26:18;12.97;;;9.90;;
26594;SDS011;14238;49.496;8.154;2023-03-03T01:28:44;10.53;;;9.07;;
26594;SDS011;14238;49.496;8.154;2023-03-03T01:31:09;10.10;;;9.10;;
26594;SDS011;14238;49.496;8.154;2023-03-03T01:33:36;11.20;;;10.10;;
26594;SDS011;14238;49.496;8.154;2023-03-03T01:36:02;11.30;;;10.10;;
26594;SDS011;14238;49.496;8.154;2023-03-03T01:38:28;13.50;;;12.10;;
26594;SDS011;14238;49.496;8.154;2023-03-03T01:40:54;15.77;;;11.53;;
26594;SDS011;14238;49.496;8.154;2023-03-03T01:43:22;14.70;;;11.67;;
26594;SDS011;14238;49.496;8.154;2023-03-03T01:48:39;13.80;;;12.30;;
26594;SDS011;14238;49.496;8.154;2023-03-03T01:51:12;15.23;;;12.80;;
26594;SDS011;14238;49.496;8.154;2023-03-03T01:53:47;14.27;;;12.73;;
26594;SDS011;14238;49.496;8.154;2023-03-03T01:56:15;20.13;;;14.10;;
26594;SDS011;14238;49.496;8.154;2023-03-03T01:58:42;14.27;;;12.07;;
26594;SDS011;14238;49.496;8.154;2023-03-03T02:01:23;14.87;;;13.30;;
26594;SDS011;14238;49.496;8.154;2023-03-03T02:03:55;14.90;;;13.40;;
26594;SDS011;14238;49.496;8.154;2023-03-03T02:06:21;15.30;;;13.60;;
26594;SDS011;14238;49.496;8.154;2023-03-03T02:11:36;14.77;;;12.50;;
26594;SDS011;14238;49.496;8.154;2023-03-03T02:14:04;14.97;;;12.33;;
26594;SDS011;14238;49.496;8.154;2023-03-03T02:16:29;15.03;;;12.90;;
26594;SDS011;14238;49.496;8.154;2023-03-03T02:18:55;16.50;;;12.37;;
26594;SDS011;14238;49.496;8.154;2023-03-03T02:21:22;16.10;;;13.23;;
26594;SDS011;14238;49.496;8.154;2023-03-03T02:24:02;14.70;;;12.10;;
26594;SDS011;14238;49.496;8.154;2023-03-03T02:26:44;13.67;;;12.10;;
26594;SDS011;14238;49.496;8.154;2023-03-03T02:29:10;16.17;;;14.43;;
26594;SDS011;14238;49.496;8.154;2023-03-03T02:31:35;13.43;;;11.83;;
26594;SDS011;14238;49.496;8.154;2023-03-03T02:34:02;14.50;;;12.83;;
26594;SDS011;14238;49.496;8.154;2023-03-03T02:36:33;16.10;;;12.80;;
26594;SDS011;14238;49.496;8.154;2023-03-03T02:42:10;14.20;;;12.80;;
26594;SDS011;14238;49.496;8.154;2023-03-03T02:44:18;15.83;;;13.33;;
26594;SDS011;14238;49.496;8.154;2023-03-03T02:46:46;15.30;;;13.07;;
26594;SDS011;14238;49.496;8.154;2023-03-03T02:49:18;15.37;;;12.90;;
26594;SDS011;14238;49.496;8.154;2023-03-03T02:51:48;16.67;;;13.57;;
26594;SDS011;14238;49.496;8.154;2023-03-03T02:54:15;18.37;;;14.87;;
26594;SDS011;14238;49.496;8.154;2023-03-03T02:56:41;17.03;;;15.23;;
26594;SDS011;14238;49.496;8.154;2023-03-03T02:59:07;18.00;;;15.13;;
26594;SDS011;14238;49.496;8.154;2023-03-03T03:01:33;18.83;;;15.60;;
26594;SDS011;14238;49.496;8.154;2023-03-03T03:04:04;17.97;;;15.00;;
26594;SDS011;14238;49.496;8.154;2023-03-03T03:06:32;18.67;;;15.80;;
26594;SDS011;14238;49.496;8.154;2023-03-03T03:08:58;15.90;;;14.20;;
26594;SDS011;14238;49.496;8.154;2023-03-03T03:11:24;18.10;;;16.03;;
26594;SDS011;14238;49.496;8.154;2023-03-03T03:13:50;17.30;;;15.50;;
26594;SDS011;14238;49.496;8.154;2023-03-03T03:16:16;17.70;;;15.50;;
26594;SDS011;14238;49.496;8.154;2023-03-03T03:18:43;17.07;;;15.40;;
26594;SDS011;14238;49.496;8.154;2023-03-03T03:21:10;19.90;;;15.77;;
26594;SDS011;14238;49.496;8.154;2023-03-03T03:23:37;19.53;;;15.13;;
26594;SDS011;14238;49.496;8.154;2023-03-03T03:26:03;20.53;;;16.57;;
26594;SDS011;14238;49.496;8.154;2023-03-03T03:28:29;18.90;;;15.50;;
26594;SDS011;14238;49.496;8.154;2023-03-03T03:30:55;20.40;;;16.33;;
26594;SDS011;14238;49.496;8.154;2023-03-03T03:33:21;22.13;;;16.87;;
26594;SDS011;14238;49.496;8.154;2023-03-03T03:35:47;21.40;;;18.10;;
26594;SDS011;14238;49.496;8.154;2023-03-03T03:38:13;19.07;;;16.40;;
26594;SDS011;14238;49.496;8.154;2023-03-03T03:40:39;19.20;;;16.37;;
26594;SDS011;14238;49.496;8.154;2023-03-03T03:43:04;21.57;;;19.27;;
26594;SDS011;14238;49.496;8.154;2023-03-03T03:45:30;22.60;;;19.07;;
26594;SDS011;14238;49.496;8.154;2023-03-03T03:47:56;20.73;;;18.53;;
26594;SDS011;14238;49.496;8.154;2023-03-03T03:50:21;23.20;;;18.77;;
26594;SDS011;14238;49.496;8.154;2023-03-03T03:52:47;24.20;;;19.87;;
26594;SDS011;14238;49.496;8.154;2023-03-03T03:55:13;22.43;;;19.50;;
26594;SDS011;14238;49.496;8.154;2023-03-03T03:57:39;23.07;;;19.20;;
26594;SDS011;14238;49.496;8.154;2023-03-03T04:00:05;22.80;;;18.67;;
26594;SDS011;14238;49.496;8.154;2023-03-03T04:02:32;25.30;;;20.53;;
26594;SDS011;14238;49.496;8.154;2023-03-03T04:04:58;25.00;;;20.30;;
26594;SDS011;14238;49.496;8.154;2023-03-03T04:07:24;24.53;;;21.00;;
26594;SDS011;14238;49.496;8.154;2023-03-03T04:09:50;23.73;;;20.83;;
26594;SDS011;14238;49.496;8.154;2023-03-03T04:12:15;23.83;;;20.30;;
26594;SDS011;14238;49.496;8.154;2023-03-03T04:14:41;22.97;;;18.77;;
26594;SDS011;14238;49.496;8.154;2023-03-03T04:17:07;25.50;;;21.10;;
26594;SDS011;14238;49.496;8.154;2023-03-03T04:19:33;26.23;;;21.23;;
26594;SDS011;14238;49.496;8.154;2023-03-03T04:21:59;27.83;;;21.50;;
26594;SDS011;14238;49.496;8.154;2023-03-03T04:24:24;29.63;;;24.03;;
26594;SDS011;14238;49.496;8.154;2023-03-03T04:26:50;29.87;;;23.87;;
26594;SDS011;14238;49.496;8.154;2023-03-03T04:29:15;31.00;;;23.50;;
26594;SDS011;14238;49.496;8.154;2023-03-03T04:31:41;27.17;;;23.90;;
26594;SDS011;14238;49.496;8.154;2023-03-03T04:34:06;30.07;;;23.57;;
26594;SDS011;14238;49.496;8.154;2023-03-03T04:36:32;30.40;;;24.80;;
26594;SDS011;14238;49.496;8.154;2023-03-03T04:38:57;31.00;;;24.60;;
26594;SDS011;14238;49.496;8.154;2023-03-03T04:41:23;31.37;;;26.47;;
26594;SDS011;14238;49.496;8.154;2023-03-03T04:43:48;34.43;;;25.70;;
26594;SDS011;14238;49.496;8.154;2023-03-03T04:46:14;29.63;;;24.30;;
26594;SDS011;14238;49.496;8.154;2023-03-03T04:48:39;32.63;;;25.30;;
26594;SDS011;14238;49.496;8.154;2023-03-03T04:51:05;31.67;;;25.70;;
26594;SDS011;14238;49.496;8.154;2023-03-03T04:53:30;32.17;;;25.03;;
26594;SDS011;14238;49.496;8.154;2023-03-03T04:55:56;31.20;;;25.30;;
26594;SDS011;14238;49.496;8.154;2023-03-03T04:58:21;34.60;;;25.70;;
26594;SDS011;14238;49.496;8.154;2023-03-03T05:00:52;30.50;;;24.70;;
26594;SDS011;14238;49.496;8.154;2023-03-03T05:03:19;34.47;;;26.17;;
26594;SDS011;14238;49.496;8.154;2023-03-03T05:05:45;33.40;;;26.03;;
26594;SDS011;14238;49.496;8.154;2023-03-03T05:08:11;34.70;;;26.20;;
26594;SDS011;14238;49.496;8.154;2023-03-03T05:10:37;31.83;;;25.63;;
26594;SDS011;14238;49.496;8.154;2023-03-03T05:13:03;33.60;;;26.87;;
26594;SDS011;14238;49.496;8.154;2023-03-03T05:15:29;35.30;;;26.70;;
26594;SDS011;14238;49.496;8.154;2023-03-03T05:17:55;32.40;;;26.37;;
26594;SDS011;14238;49.496;8.154;2023-03-03T05:20:21;33.47;;;26.47;;
26594;SDS011;14238;49.496;8.154;2023-03-03T05:22:47;35.80;;;28.53;;
26594;SDS011;14238;49.496;8.154;2023-03-03T05:25:12;33.60;;;25.13;;
26594;SDS011;14238;49.496;8.154;2023-03-03T05:27:38;30.60;;;25.30;;
26594;SDS011;14238;49.496;8.154;2023-03-03T05:30:04;37.63;;;29.50;;
26594;SDS011;14238;49.496;8.154;2023-03-03T05:32:30;35.27;;;27.53;;
26594;SDS011;14238;49.496;8.154;2023-03-03T05:34:56;36.70;;;28.40;;
26594;SDS011;14238;49.496;8.154;2023-03-03T05:37:22;35.50;;;29.07;;
26594;SDS011;14238;49.496;8.154;2023-03-03T05:39:48;36.60;;;28.57;;
26594;SDS011;14238;49.496;8.154;2023-03-03T05:42:14;37.90;;;28.43;;
26594;SDS011;14238;49.496;8.154;2023-03-03T05:44:40;37.90;;;29.70;;
26594;SDS011;14238;49.496;8.154;2023-03-03T05:47:05;40.10;;;29.80;;
26594;SDS011;14238;49.496;8.154;2023-03-03T05:49:31;38.63;;;29.30;;
26594;SDS011;14238;49.496;8.154;2023-03-03T05:51:57;36.47;;;29.20;;
26594;SDS011;14238;49.496;8.154;2023-03-03T05:54:24;41.90;;;31.13;;
26594;SDS011;14238;49.496;8.154;2023-03-03T05:56:49;38.23;;;28.50;;
26594;SDS011;14238;49.496;8.154;2023-03-03T05:59:15;40.00;;;29.87;;
26594;SDS011;14238;49.496;8.154;2023-03-03T06:01:40;37.00;;;28.73;;
26594;SDS011;14238;49.496;8.154;2023-03-03T06:04:06;38.50;;;29.70;;
26594;SDS011;14238;49.496;8.154;2023-03-03T06:06:32;40.70;;;29.47;;
26594;SDS011;14238;49.496;8.154;2023-03-03T06:08:58;39.93;;;28.90;;
26594;SDS011;14238;49.496;8.154;2023-03-03T06:11:23;35.70;;;29.37;;
26594;SDS011;14238;49.496;8.154;2023-03-03T06:13:49;37.10;;;29.63;;
26594;SDS011;14238;49.496;8.154;2023-03-03T06:16:15;39.20;;;28.17;;
26594;SDS011;14238;49.496;8.154;2023-03-03T06:18:40;36.70;;;29.07;;
26594;SDS011;14238;49.496;8.154;2023-03-03T06:21:06;39.13;;;29.87;;
26594;SDS011;14238;49.496;8.154;2023-03-03T06:23:31;39.20;;;29.30;;
26594;SDS011;14238;49.496;8.154;2023-03-03T06:25:57;40.50;;;30.80;;
26594;SDS011;14238;49.496;8.154;2023-03-03T06:28:22;39.70;;;28.43;;
26594;SDS011;14238;49.496;8.154;2023-03-03T06:30:51;34.80;;;27.73;;
26594;SDS011;14238;49.496;8.154;2023-03-03T06:33:18;41.83;;;30.20;;
26594;SDS011;14238;49.496;8.154;2023-03-03T06:35:47;38.27;;;30.00;;
26594;SDS011;14238;49.496;8.154;2023-03-03T06:38:17;43.87;;;32.20;;
26594;SDS011;14238;49.496;8.154;2023-03-03T06:40:43;44.40;;;30.83;;
26594;SDS011;14238;49.496;8.154;2023-03-03T06:43:09;35.70;;;28.60;;
26594;SDS011;14238;49.496;8.154;2023-03-03T06:45:35;34.83;;;26.57;;
26594;SDS011;14238;49.496;8.154;2023-03-03T06:48:01;38.07;;;28.97;;
26594;SDS011;14238;49.496;8.154;2023-03-03T06:50:26;35.80;;;27.63;;
26594;SDS011;14238;49.496;8.154;2023-03-03T06:53:01;42.77;;;31.90;;
26594;SDS011;14238;49.496;8.154;2023-03-03T06:55:34;40.00;;;30.70;;
26594;SDS011;14238;49.496;8.154;2023-03-03T06:57:59;40.30;;;30.77;;
26594;SDS011;14238;49.496;8.154;2023-03-03T07:00:26;39.80;;;31.50;;
26594;SDS011;14238;49.496;8.154;2023-03-03T07:02:56;39.00;;;31.13;;
26594;SDS011;14238;49.496;8.154;2023-03-03T07:05:24;40.37;;;30.40;;
26594;SDS011;14238;49.496;8.154;2023-03-03T07:07:52;47.97;;;34.10;;
26594;SDS011;14238;49.496;8.154;2023-03-03T07:10:21;40.20;;;30.97;;
26594;SDS011;14238;49.496;8.154;2023-03-03T07:12:49;42.63;;;31.10;;
26594;SDS011;14238;49.496;8.154;2023-03-03T07:15:19;42.63;;;32.73;;
26594;SDS011;14238;49.496;8.154;2023-03-03T07:17:48;41.83;;;31.60;;
26594;SDS011;14238;49.496;8.154;2023-03-03T07:20:18;40.50;;;32.10;;
26594;SDS011;14238;49.496;8.154;2023-03-03T07:22:43;42.43;;;31.10;;
26594;SDS011;14238;49.496;8.154;2023-03-03T07:28:37;36.40;;;28.90;;
26594;SDS011;14238;49.496;8.154;2023-03-03T07:30:56;39.10;;;29.90;;
26594;SDS011;14238;49.496;8.154;2023-03-03T07:33:30;40.43;;;30.70;;
26594;SDS011;14238;49.496;8.154;2023-03-03T07:36:01;39.60;;;31.67;;
26594;SDS011;14238;49.496;8.154;2023-03-03T07:38:33;43.33;;;31.73;;
26594;SDS011;14238;49.496;8.154;2023-03-03T07:41:03;42.37;;;32.63;;
26594;SDS011;14238;49.496;8.154;2023-03-03T07:43:54;41.10;;;32.03;;
26594;SDS011;14238;49.496;8.154;2023-03-03T07:46:43;37.03;;;30.60;;
26594;SDS011;14238;49.496;8.154;2023-03-03T07:49:22;39.93;;;30.20;;
26594;SDS011;14238;49.496;8.154;2023-03-03T07:51:55;42.30;;;32.03;;
26594;SDS011;14238;49.496;8.154;2023-03-03T07:54:30;40.03;;;31.60;;
26594;SDS011;14238;49.496;8.154;2023-03-03T08:02:41;39.60;;;30.77;;
26594;SDS011;14238;49.496;8.154;2023-03-03T08:05:20;41.23;;;30.60;;
26594;SDS011;14238;49.496;8.154;2023-03-03T08:07:50;41.10;;;31.33;;
26594;SDS011;14238;49.496;8.154;2023-03-03T08:10:58;37.33;;;30.23;;
26594;SDS011;14238;49.496;8.154;2023-03-03T08:13:08;40.30;;;31.20;;
26594;SDS011;14238;49.496;8.154;2023-03-03T08:15:42;39.60;;;31.07;;
26594;SDS011;14238;49.496;8.154;2023-03-03T08:18:27;43.43;;;30.00;;
26594;SDS011;14238;49.496;8.154;2023-03-03T08:20:57;38.80;;;29.70;;
26594;SDS011;14238;49.496;8.154;2023-03-03T08:23:24;43.07;;;31.10;;
26594;SDS011;14238;49.496;8.154;2023-03-03T08:25:50;39.77;;;32.83;;
26594;SDS011;14238;49.496;8.154;2023-03-03T08:28:16;38.77;;;29.77;;
26594;SDS011;14238;49.496;8.154;2023-03-03T08:30:44;42.97;;;30.43;;
26594;SDS011;14238;49.496;8.154;2023-03-03T08:33:10;40.70;;;30.37;;
26594;SDS011;14238;49.496;8.154;2023-03-03T08:35:36;37.23;;;29.83;;
26594;SDS011;14238;49.496;8.154;2023-03-03T08:38:02;40.57;;;30.73;;
26594;SDS011;14238;49.496;8.154;2023-03-03T08:40:29;40.97;;;31.60;;
26594;SDS011;14238;49.496;8.154;2023-03-03T08:42:54;42.03;;;31.07;;
26594;SDS011;14238;49.496;8.154;2023-03-03T08:45:22;46.87;;;33.40;;
26594;SDS011;14238;49.496;8.154;2023-03-03T08:47:48;44.27;;;32.10;;
26594;SDS011;14238;49.496;8.154;2023-03-03T08:50:13;45.13;;;32.30;;
26594;SDS011;14238;49.496;8.154;2023-03-03T08:52:39;43.53;;;32.30;;
26594;SDS011;14238;49.496;8.154;2023-03-03T08:55:04;41.17;;;33.37;;
26594;SDS011;14238;49.496;8.154;2023-03-03T08:57:31;45.60;;;34.27;;
26594;SDS011;14238;49.496;8.154;2023-03-03T08:59:56;42.23;;;32.50;;
26594;SDS011;14238;49.496;8.154;2023-03-03T09:02:22;42.30;;;33.10;;
26594;SDS011;14238;49.496;8.154;2023-03-03T09:04:47;39.43;;;31.53;;
26594;SDS011;14238;49.496;8.154;2023-03-03T09:07:13;45.33;;;34.93;;
26594;SDS011;14238;49.496;8.154;2023-03-03T09:09:38;46.87;;;34.57;;
26594;SDS011;14238;49.496;8.154;2023-03-03T09:12:15;41.50;;;33.87;;
26594;SDS011;14238;49.496;8.154;2023-03-03T09:14:43;45.60;;;34.60;;
26594;SDS011;14238;49.496;8.154;2023-03-03T09:17:18;44.07;;;33.43;;
26594;SDS011;14238;49.496;8.154;2023-03-03T09:19:50;43.10;;;32.97;;
26594;SDS011;14238;49.496;8.154;2023-03-03T09:22:18;43.20;;;32.57;;
26594;SDS011;14238;49.496;8.154;2023-03-03T09:24:48;43.67;;;32.50;;
26594;SDS011;14238;49.496;8.154;2023-03-03T09:27:24;38.00;;;31.10;;
26594;SDS011;14238;49.496;8.154;2023-03-03T09:30:01;37.83;;;30.60;;
26594;SDS011;14238;49.496;8.154;2023-03-03T09:32:51;33.43;;;27.83;;
26594;SDS011;14238;49.496;8.154;2023-03-03T09:38:26;34.40;;;30.63;;
26594;SDS011;14238;49.496;8.154;2023-03-03T09:40:57;34.20;;;29.23;;
26594;SDS011;14238;49.496;8.154;2023-03-03T09:49:31;30.03;;;26.77;;
26594;SDS011;14238;49.496;8.154;2023-03-03T09:52:05;34.00;;;29.20;;
26594;SDS011;14238;49.496;8.154;2023-03-03T09:58:11;34.33;;;30.00;;
26594;SDS011;14238;49.496;8.154;2023-03-03T10:00:42;31.60;;;28.30;;
26594;SDS011;14238;49.496;8.154;2023-03-03T10:08:56;31.53;;;27.57;;
26594;SDS011;14238;49.496;8.154;2023-03-03T10:23:33;34.00;;;30.37;;
26594;SDS011;14238;49.496;8.154;2023-03-03T10:26:37;31.47;;;28.07;;
26594;SDS011;14238;49.496;8.154;2023-03-03T10:29:34;31.03;;;27.53;;
26594;SDS011;14238;49.496;8.154;2023-03-03T10:35:15;33.93;;;30.03;;
26594;SDS011;14238;49.496;8.154;2023-03-03T10:38:01;35.00;;;29.07;;
26594;SDS011;14238;49.496;8.154;2023-03-03T10:40:34;33.63;;;29.97;;
26594;SDS011;14238;49.496;8.154;2023-03-03T10:48:27;32.63;;;28.90;;
26594;SDS011;14238;49.496;8.154;2023-03-03T10:51:30;33.03;;;26.70;;
26594;SDS011;14238;49.496;8.154;2023-03-03T10:54:15;30.87;;;27.20;;
26594;SDS011;14238;49.496;8.154;2023-03-03T11:00:19;31.83;;;26.60;;
26594;SDS011;14238;49.496;8.154;2023-03-03T11:05:59;32.70;;;27.90;;
26594;SDS011;14238;49.496;8.154;2023-03-03T11:08:32;29.53;;;25.70;;
26594;SDS011;14238;49.496;8.154;2023-03-03T11:11:15;28.87;;;25.77;;
26594;SDS011;14238;49.496;8.154;2023-03-03T11:24:54;29.60;;;26.03;;
26594;SDS011;14238;49.496;8.154;2023-03-03T11:27:43;33.03;;;28.83;;
26594;SDS011;14238;49.496;8.154;2023-03-03T11:30:19;29.83;;;25.57;;
26594;SDS011;14238;49.496;8.154;2023-03-03T11:33:14;28.87;;;25.73;;
26594;SDS011;14238;49.496;8.154;2023-03-03T11:36:07;29.33;;;26.00;;
26594;SDS011;14238;49.496;8.154;2023-03-03T11:44:19;29.17;;;26.03;;
26594;SDS011;14238;49.496;8.154;2023-03-03T11:47:02;34.07;;;27.57;;
26594;SDS011;14238;49.496;8.154;2023-03-03T11:55:19;27.47;;;24.63;;
26594;SDS011;14238;49.496;8.154;2023-03-03T11:58:07;28.07;;;25.07;;
26594;SDS011;14238;49.496;8.154;2023-03-03T12:03:44;27.77;;;24.77;;
26594;SDS011;14238;49.496;8.154;2023-03-03T12:06:27;28.17;;;24.07;;
26594;SDS011;14238;49.496;8.154;2023-03-03T12:09:10;26.10;;;23.43;;
26594;SDS011;14238;49.496;8.154;2023-03-03T12:14:34;30.40;;;23.77;;
26594;SDS011;14238;49.496;8.154;2023-03-03T12:17:16;29.03;;;26.03;;
26594;SDS011;14238;49.496;8.154;2023-03-03T12:23:18;26.20;;;23.40;;
26594;SDS011;14238;49.496;8.154;2023-03-03T12:25:39;27.80;;;24.43;;
26594;SDS011;14238;49.496;8.154;2023-03-03T12:28:23;27.33;;;23.20;;
26594;SDS011;14238;49.496;8.154;2023-03-03T12:33:56;26.47;;;23.53;;
26594;SDS011;14238;49.496;8.154;2023-03-03T12:39:38;22.83;;;20.50;;
26594;SDS011;14238;49.496;8.154;2023-03-03T12:42:12;25.43;;;22.80;;
26594;SDS011;14238;49.496;8.154;2023-03-03T12:45:06;28.00;;;25.10;;
26594;SDS011;14238;49.496;8.154;2023-03-03T12:47:57;26.27;;;23.63;;
26594;SDS011;14238;49.496;8.154;2023-03-03T12:50:47;27.20;;;23.80;;
26594;SDS011;14238;49.496;8.154;2023-03-03T12:56:21;26.03;;;23.30;;
26594;SDS011;14238;49.496;8.154;2023-03-03T12:58:59;27.50;;;24.60;;
26594;SDS011;14238;49.496;8.154;2023-03-03T13:01:44;24.30;;;21.80;;
26594;SDS011;14238;49.496;8.154;2023-03-03T13:15:24;23.73;;;21.23;;
26594;SDS011;14238;49.496;8.154;2023-03-03T13:29:14;24.80;;;22.20;;
26594;SDS011;14238;49.496;8.154;2023-03-03T13:31:58;25.77;;;23.00;;
26594;SDS011;14238;49.496;8.154;2023-03-03T13:37:04;24.87;;;22.27;;
26594;SDS011;14238;49.496;8.154;2023-03-03T13:59:02;23.67;;;21.10;;
26594;SDS011;14238;49.496;8.154;2023-03-03T14:07:06;25.70;;;23.00;;
26594;SDS011;14238;49.496;8.154;2023-03-03T14:09:58;25.43;;;22.80;;
26594;SDS011;14238;49.496;8.154;2023-03-03T14:12:39;27.13;;;21.10;;
26594;SDS011;14238;49.496;8.154;2023-03-03T14:18:00;26.90;;;22.27;;
26594;SDS011;14238;49.496;8.154;2023-03-03T14:20:47;23.50;;;21.00;;
26594;SDS011;14238;49.496;8.154;2023-03-03T14:23:17;24.90;;;22.20;;
26594;SDS011;14238;49.496;8.154;2023-03-03T14:25:57;27.43;;;23.53;;
26594;SDS011;14238;49.496;8.154;2023-03-03T14:28:25;26.43;;;23.63;;
26594;SDS011;14238;49.496;8.154;2023-03-03T14:30:54;27.13;;;23.57;;
26594;SDS011;14238;49.496;8.154;2023-03-03T14:33:22;24.93;;;22.23;;
26594;SDS011;14238;49.496;8.154;2023-03-03T14:38:21;26.67;;;22.37;;
26594;SDS011;14238;49.496;8.154;2023-03-03T14:40:55;26.27;;;23.00;;
26594;SDS011;14238;49.496;8.154;2023-03-03T14:43:35;27.37;;;24.50;;
26594;SDS011;14238;49.496;8.154;2023-03-03T14:46:30;25.23;;;22.57;;
26594;SDS011;14238;49.496;8.154;2023-03-03T14:49:05;29.00;;;23.33;;
26594;SDS011;14238;49.496;8.154;2023-03-03T14:51:56;26.77;;;23.43;;
26594;SDS011;14238;49.496;8.154;2023-03-03T14:54:37;27.03;;;24.13;;
26594;SDS011;14238;49.496;8.154;2023-03-03T14:57:15;28.13;;;24.27;;
26594;SDS011;14238;49.496;8.154;2023-03-03T14:59:54;28.37;;;22.20;;
26594;SDS011;14238;49.496;8.154;2023-03-03T15:02:26;24.13;;;21.50;;
26594;SDS011;14238;49.496;8.154;2023-03-03T15:05:07;25.83;;;23.03;;
26594;SDS011;14238;49.496;8.154;2023-03-03T15:07:53;25.87;;;22.93;;
26594;SDS011;14238;49.496;8.154;2023-03-03T15:10:34;26.50;;;23.27;;
26594;SDS011;14238;49.496;8.154;2023-03-03T15:18:17;28.10;;;22.40;;
26594;SDS011;14238;49.496;8.154;2023-03-03T15:21:00;29.53;;;23.40;;
26594;SDS011;14238;49.496;8.154;2023-03-03T15:34:32;27.67;;;21.53;;
26594;SDS011;14238;49.496;8.154;2023-03-03T15:39:57;31.17;;;23.77;;
26594;SDS011;14238;49.496;8.154;2023-03-03T15:42:47;26.73;;;23.40;;
26594;SDS011;14238;49.496;8.154;2023-03-03T15:45:42;29.80;;;23.30;;
26594;SDS011;14238;49.496;8.154;2023-03-03T15:48:39;25.63;;;22.83;;
26594;SDS011;14238;49.496;8.154;2023-03-03T15:51:21;25.93;;;22.90;;
26594;SDS011;14238;49.496;8.154;2023-03-03T15:54:27;26.23;;;23.20;;
26594;SDS011;14238;49.496;8.154;2023-03-03T15:57:07;26.93;;;22.50;;
26594;SDS011;14238;49.496;8.154;2023-03-03T16:04:58;27.77;;;22.47;;
26594;SDS011;14238;49.496;8.154;2023-03-03T16:07:38;29.00;;;23.47;;
26594;SDS011;14238;49.496;8.154;2023-03-03T16:13:19;26.57;;;22.23;;
26594;SDS011;14238;49.496;8.154;2023-03-03T16:16:04;25.83;;;22.10;;
26594;SDS011;14238;49.496;8.154;2023-03-03T16:18:51;25.10;;;21.47;;
26594;SDS011;14238;49.496;8.154;2023-03-03T16:21:20;28.00;;;23.27;;
26594;SDS011;14238;49.496;8.154;2023-03-03T16:27:25;25.67;;;21.50;;
26594;SDS011;14238;49.496;8.154;2023-03-03T16:32:58;26.27;;;22.50;;
26594;SDS011;14238;49.496;8.154;2023-03-03T16:35:38;24.30;;;20.40;;
26594;SDS011;14238;49.496;8.154;2023-03-03T16:38:13;25.80;;;21.47;;
26594;SDS011;14238;49.496;8.154;2023-03-03T16:40:53;26.27;;;21.73;;
26594;SDS011;14238;49.496;8.154;2023-03-03T16:46:07;24.33;;;20.13;;
26594;SDS011;14238;49.496;8.154;2023-03-03T16:48:59;24.10;;;20.13;;
26594;SDS011;14238;49.496;8.154;2023-03-03T16:51:29;24.33;;;19.80;;
26594;SDS011;14238;49.496;8.154;2023-03-03T16:54:33;21.23;;;17.63;;
26594;SDS011;14238;49.496;8.154;2023-03-03T16:57:18;20.87;;;18.43;;
26594;SDS011;14238;49.496;8.154;2023-03-03T17:00:10;22.97;;;18.30;;
26594;SDS011;14238;49.496;8.154;2023-03-03T17:02:57;21.83;;;18.20;;
26594;SDS011;14238;49.496;8.154;2023-03-03T17:22:16;27.17;;;18.60;;
26594;SDS011;14238;49.496;8.154;2023-03-03T17:27:39;21.27;;;16.30;;
26594;SDS011;14238;49.496;8.154;2023-03-03T17:30:34;20.80;;;17.10;;
26594;SDS011;14238;49.496;8.154;2023-03-03T17:33:15;22.70;;;16.73;;
26594;SDS011;14238;49.496;8.154;2023-03-03T17:47:10;18.87;;;16.30;;
26594;SDS011;14238;49.496;8.154;2023-03-03T17:50:02;20.57;;;16.37;;
26594;SDS011;14238;49.496;8.154;2023-03-03T17:58:49;20.37;;;16.00;;
26594;SDS011;14238;49.496;8.154;2023-03-03T18:04:51;18.07;;;14.80;;
26594;SDS011;14238;49.496;8.154;2023-03-03T18:07:32;24.50;;;16.77;;
26594;SDS011;14238;49.496;8.154;2023-03-03T18:13:08;22.07;;;15.80;;
26594;SDS011;14238;49.496;8.154;2023-03-03T18:26:49;17.97;;;14.53;;
26594;SDS011;14238;49.496;8.154;2023-03-03T18:31:45;22.57;;;17.13;;
26594;SDS011;14238;49.496;8.154;2023-03-03T18:36:52;23.20;;;16.33;;
26594;SDS011;14238;49.496;8.154;2023-03-03T18:44:40;23.00;;;18.50;;
26594;SDS011;14238;49.496;8.154;2023-03-03T18:47:07;26.90;;;19.70;;
26594;SDS011;14238;49.496;8.154;2023-03-03T18:49:49;22.67;;;16.77;;
26594;SDS011;14238;49.496;8.154;2023-03-03T18:52:39;28.57;;;18.43;;
26594;SDS011;14238;49.496;8.154;2023-03-03T18:55:38;26.57;;;20.10;;
26594;SDS011;14238;49.496;8.154;2023-03-03T19:00:44;22.30;;;17.80;;
26594;SDS011;14238;49.496;8.154;2023-03-03T19:08:59;31.03;;;23.43;;
26594;SDS011;14238;49.496;8.154;2023-03-03T19:11:41;33.47;;;23.90;;
26594;SDS011;14238;49.496;8.154;2023-03-03T19:16:54;31.30;;;24.70;;
26594;SDS011;14238;49.496;8.154;2023-03-03T19:19:24;38.57;;;28.13;;
26594;SDS011;14238;49.496;8.154;2023-03-03T19:25:01;34.63;;;24.57;;
26594;SDS011;14238;49.496;8.154;2023-03-03T19:27:38;39.87;;;27.97;;
26594;SDS011;14238;49.496;8.154;2023-03-03T19:32:51;38.20;;;27.80;;
26594;SDS011;14238;49.496;8.154;2023-03-03T19:38:22;38.00;;;28.70;;
26594;SDS011;14238;49.496;8.154;2023-03-03T19:41:10;33.53;;;24.93;;
26594;SDS011;14238;49.496;8.154;2023-03-03T19:52:17;38.63;;;27.87;;
26594;SDS011;14238;49.496;8.154;2023-03-03T20:02:56;33.20;;;26.23;;